sensor_id;sensor_type;location;lat;lon;timestamp;temperature;humidity
17671;DHT22;8954;48.694;8.940;2023-07-24T05:50:31;17.40;99.90
17671;DHT22;8954;48.694;8.940;2023-07-24T05:52:57;17.20;99.90
17671;DHT22;8954;48.694;8.940;2023-07-24T05:55:22;17.20;99.90
17671;DHT22;8954;48.694;8.940;2023-07-24T05:57:48;17.20;99.90
17671;DHT22;8954;48.694;8.940;2023-07-24T06:00:14;17.20;99.90
17671;DHT22;8954;48.694;8.940;2023-07-24T06:02:39;17.20;99.90
17671;DHT22;8954;48.694;8.940;2023-07-24T06:05:05;17.40;99.90
17671;DHT22;8954;48.694;8.940;2023-07-24T06:07:31;17.40;99.90
17671;DHT22;8954;48.694;8.940;2023-07-24T06:09:56;17.40;99.90
17671;DHT22;8954;48.694;8.940;2023-07-24T06:12:22;17.50;99.90
17671;DHT22;8954;48.694;8.940;2023-07-24T06:14:47;17.60;99.90
17671;DHT22;8954;48.694;8.940;2023-07-24T06:17:13;17.70;99.90
17671;DHT22;8954;48.694;8.940;2023-07-24T06:19:39;18.00;99.90
17671;DHT22;8954;48.694;8.940;2023-07-24T06:22:04;18.10;99.90
17671;DHT22;8954;48.694;8.940;2023-07-24T06:24:30;18.20;99.90
17671;DHT22;8954;48.694;8.940;2023-07-24T06:26:55;18.40;99.90
17671;DHT22;8954;48.694;8.940;2023-07-24T06:29:21;18.60;99.90
17671;DHT22;8954;48.694;8.940;2023-07-24T06:31:47;18.80;99.90
17671;DHT22;8954;48.694;8.940;2023-07-24T06:34:13;19.00;99.90
17671;DHT22;8954;48.694;8.940;2023-07-24T06:36:38;19.00;99.90
17671;DHT22;8954;48.694;8.940;2023-07-24T06:39:04;19.20;99.90
17671;DHT22;8954;48.694;8.940;2023-07-24T06:41:29;19.30;99.90
17671;DHT22;8954;48.694;8.940;2023-07-24T06:43:55;19.40;99.90
17671;DHT22;8954;48.694;8.940;2023-07-24T06:46:21;19.20;99.90
17671;DHT22;8954;48.694;8.940;2023-07-24T06:48:46;19.30;99.90
17671;DHT22;8954;48.694;8.940;2023-07-24T06:51:12;19.30;99.90
17671;DHT22;8954;48.694;8.940;2023-07-24T06:53:37;19.40;99.90
17671;DHT22;8954;48.694;8.940;2023-07-24T06:56:03;19.50;99.90
17671;DHT22;8954;48.694;8.940;2023-07-24T06:58:28;19.70;99.90
17671;DHT22;8954;48.694;8.940;2023-07-24T07:00:54;20.00;99.90
17671;DHT22;8954;48.694;8.940;2023-07-24T07:03:19;20.20;99.90
17671;DHT22;8954;48.694;8.940;2023-07-24T07:05:45;20.50;99.90
17671;DHT22;8954;48.694;8.940;2023-07-24T07:08:10;20.60;99.90
17671;DHT22;8954;48.694;8.940;2023-07-24T07:10:36;20.60;99.90
17671;DHT22;8954;48.694;8.940;2023-07-24T07:13:01;20.70;99.90
17671;DHT22;8954;48.694;8.940;2023-07-24T07:15:27;20.60;99.90
17671;DHT22;8954;48.694;8.940;2023-07-24T07:17:53;20.30;99.90
17671;DHT22;8954;48.694;8.940;2023-07-24T07:20:18;20.30;99.90
17671;DHT22;8954;48.694;8.940;2023-07-24T07:22:44;20.20;99.90
17671;DHT22;8954;48.694;8.940;2023-07-24T07:25:10;20.20;99.90
17671;DHT22;8954;48.694;8.940;2023-07-24T07:27:35;20.30;99.90
17671;DHT22;8954;48.694;8.940;2023-07-24T07:30:01;20.30;99.90
17671;DHT22;8954;48.694;8.940;2023-07-24T07:32:26;20.50;99.90
17671;DHT22;8954;48.694;8.940;2023-07-24T07:34:52;20.50;99.90
17671;DHT22;8954;48.694;8.940;2023-07-24T07:37:18;20.70;99.90
17671;DHT22;8954;48.694;8.940;2023-07-24T07:39:43;20.90;99.90
17671;DHT22;8954;48.694;8.940;2023-07-24T07:42:09;21.10;99.90
17671;DHT22;8954;48.694;8.940;2023-07-24T07:44:34;21.10;99.90
17671;DHT22;8954;48.694;8.940;2023-07-24T07:47:00;21.10;99.90
17671;DHT22;8954;48.694;8.940;2023-07-24T07:49:25;21.10;99.90
17671;DHT22;8954;48.694;8.940;2023-07-24T07:51:51;21.10;99.90
17671;DHT22;8954;48.694;8.940;2023-07-24T07:54:17;21.10;99.90
17671;DHT22;8954;48.694;8.940;2023-07-24T07:56:42;21.00;99.90
17671;DHT22;8954;48.694;8.940;2023-07-24T07:59:08;20.80;99.90
17671;DHT22;8954;48.694;8.940;2023-07-24T08:01:35;20.70;99.90
17671;DHT22;8954;48.694;8.940;2023-07-24T08:04:01;20.60;99.90
17671;DHT22;8954;48.694;8.940;2023-07-24T08:06:26;20.40;99.90
17671;DHT22;8954;48.694;8.940;2023-07-24T08:08:52;20.40;99.90
17671;DHT22;8954;48.694;8.940;2023-07-24T08:11:17;20.20;99.90
17671;DHT22;8954;48.694;8.940;2023-07-24T08:13:43;20.20;99.90
17671;DHT22;8954;48.694;8.940;2023-07-24T08:16:15;20.00;99.90
17671;DHT22;8954;48.694;8.940;2023-07-24T08:18:46;19.90;99.90
17671;DHT22;8954;48.694;8.940;2023-07-24T08:21:13;19.90;99.90
17671;DHT22;8954;48.694;8.940;2023-07-24T08:23:40;19.90;99.90
17671;DHT22;8954;48.694;8.940;2023-07-24T08:26:06;19.90;99.90
17671;DHT22;8954;48.694;8.940;2023-07-24T08:28:32;20.00;99.90
17671;DHT22;8954;48.694;8.940;2023-07-24T08:30:58;20.00;99.90
17671;DHT22;8954;48.694;8.940;2023-07-24T08:33:24;20.00;99.90
17671;DHT22;8954;48.694;8.940;2023-07-24T08:36:03;20.00;99.90
17671;DHT22;8954;48.694;8.940;2023-07-24T08:38:29;20.30;99.90
17671;DHT22;8954;48.694;8.940;2023-07-24T08:41:03;20.40;99.90
17671;DHT22;8954;48.694;8.940;2023-07-24T08:43:29;20.30;99.90
17671;DHT22;8954;48.694;8.940;2023-07-24T08:45:56;20.00;99.90
17671;DHT22;8954;48.694;8.940;2023-07-24T08:48:22;20.10;99.90
17671;DHT22;8954;48.694;8.940;2023-07-24T08:50:50;20.30;99.90
17671;DHT22;8954;48.694;8.940;2023-07-24T08:53:18;20.40;99.90
17671;DHT22;8954;48.694;8.940;2023-07-24T08:55:45;20.50;99.90
17671;DHT22;8954;48.694;8.940;2023-07-24T08:58:14;20.70;99.90
17671;DHT22;8954;48.694;8.940;2023-07-24T09:00:40;20.70;99.90
17671;DHT22;8954;48.694;8.940;2023-07-24T09:03:05;20.70;99.90
17671;DHT22;8954;48.694;8.940;2023-07-24T09:05:31;20.70;99.90
17671;DHT22;8954;48.694;8.940;2023-07-24T09:07:56;20.80;99.90
17671;DHT22;8954;48.694;8.940;2023-07-24T09:10:25;21.00;99.90
17671;DHT22;8954;48.694;8.940;2023-07-24T09:12:51;21.10;99.90
17671;DHT22;8954;48.694;8.940;2023-07-24T09:15:17;21.20;99.90
17671;DHT22;8954;48.694;8.940;2023-07-24T09:17:52;21.30;99.90
17671;DHT22;8954;48.694;8.940;2023-07-24T09:20:19;21.50;99.90
17671;DHT22;8954;48.694;8.940;2023-07-24T09:22:52;21.20;99.90
17671;DHT22;8954;48.694;8.940;2023-07-24T09:25:18;21.30;99.90
17671;DHT22;8954;48.694;8.940;2023-07-24T09:27:44;21.40;99.90
17671;DHT22;8954;48.694;8.940;2023-07-24T09:30:13;21.40;99.90
17671;DHT22;8954;48.694;8.940;2023-07-24T09:32:40;21.30;99.90
17671;DHT22;8954;48.694;8.940;2023-07-24T09:35:16;21.20;99.90
17671;DHT22;8954;48.694;8.940;2023-07-24T09:37:43;21.30;99.90
17671;DHT22;8954;48.694;8.940;2023-07-24T09:40:10;21.20;99.90
17671;DHT22;8954;48.694;8.940;2023-07-24T09:42:37;21.20;99.90
17671;DHT22;8954;48.694;8.940;2023-07-24T09:45:04;21.30;99.90
17671;DHT22;8954;48.694;8.940;2023-07-24T09:47:30;21.40;99.90
17671;DHT22;8954;48.694;8.940;2023-07-24T09:49:56;21.30;99.90
17671;DHT22;8954;48.694;8.940;2023-07-24T09:52:24;21.20;99.90
17671;DHT22;8954;48.694;8.940;2023-07-24T09:57:28;21.10;99.90
17671;DHT22;8954;48.694;8.940;2023-07-24T09:59:56;21.10;99.90
17671;DHT22;8954;48.694;8.940;2023-07-24T10:02:22;21.20;99.90
17671;DHT22;8954;48.694;8.940;2023-07-24T10:04:49;21.10;99.90
17671;DHT22;8954;48.694;8.940;2023-07-24T10:07:15;21.10;99.90
17671;DHT22;8954;48.694;8.940;2023-07-24T10:09:43;21.00;99.90
17671;DHT22;8954;48.694;8.940;2023-07-24T10:12:09;20.80;99.90
17671;DHT22;8954;48.694;8.940;2023-07-24T10:14:35;20.70;99.90
17671;DHT22;8954;48.694;8.940;2023-07-24T10:17:02;20.70;99.90
17671;DHT22;8954;48.694;8.940;2023-07-24T10:19:39;20.60;99.90
17671;DHT22;8954;48.694;8.940;2023-07-24T10:22:05;20.50;99.90
17671;DHT22;8954;48.694;8.940;2023-07-24T10:24:32;20.40;99.90
17671;DHT22;8954;48.694;8.940;2023-07-24T10:26:58;20.30;99.90
17671;DHT22;8954;48.694;8.940;2023-07-24T10:29:24;20.20;99.90
17671;DHT22;8954;48.694;8.940;2023-07-24T10:31:54;20.10;99.90
17671;DHT22;8954;48.694;8.940;2023-07-24T10:34:20;19.80;99.90
17671;DHT22;8954;48.694;8.940;2023-07-24T10:36:46;19.80;99.90
17671;DHT22;8954;48.694;8.940;2023-07-24T10:39:18;19.70;99.90
17671;DHT22;8954;48.694;8.940;2023-07-24T10:41:45;19.60;99.90
17671;DHT22;8954;48.694;8.940;2023-07-24T10:44:12;19.50;99.90
17671;DHT22;8954;48.694;8.940;2023-07-24T10:46:39;19.30;99.90
17671;DHT22;8954;48.694;8.940;2023-07-24T10:49:05;19.20;99.90
17671;DHT22;8954;48.694;8.940;2023-07-24T10:51:32;19.00;99.90
17671;DHT22;8954;48.694;8.940;2023-07-24T10:53:59;19.00;99.90
17671;DHT22;8954;48.694;8.940;2023-07-24T10:56:25;18.90;99.90
17671;DHT22;8954;48.694;8.940;2023-07-24T10:58:50;19.00;99.90
17671;DHT22;8954;48.694;8.940;2023-07-24T11:01:18;18.90;99.90
17671;DHT22;8954;48.694;8.940;2023-07-24T11:03:44;18.90;99.90
17671;DHT22;8954;48.694;8.940;2023-07-24T11:06:14;18.90;99.90
17671;DHT22;8954;48.694;8.940;2023-07-24T11:08:40;18.80;99.90
17671;DHT22;8954;48.694;8.940;2023-07-24T11:11:07;18.80;99.90
17671;DHT22;8954;48.694;8.940;2023-07-24T11:13:33;18.80;99.90
17671;DHT22;8954;48.694;8.940;2023-07-24T11:16:04;18.80;99.90
17671;DHT22;8954;48.694;8.940;2023-07-24T11:18:31;18.90;99.90
17671;DHT22;8954;48.694;8.940;2023-07-24T11:20:56;18.90;99.90
17671;DHT22;8954;48.694;8.940;2023-07-24T11:23:23;19.00;99.90
17671;DHT22;8954;48.694;8.940;2023-07-24T11:25:53;19.20;99.90
17671;DHT22;8954;48.694;8.940;2023-07-24T11:28:20;19.50;99.90
17671;DHT22;8954;48.694;8.940;2023-07-24T11:30:45;19.80;99.90
17671;DHT22;8954;48.694;8.940;2023-07-24T11:33:15;20.20;99.90
17671;DHT22;8954;48.694;8.940;2023-07-24T11:35:47;21.60;99.90
17671;DHT22;8954;48.694;8.940;2023-07-24T11:38:18;24.40;99.90
17671;DHT22;8954;48.694;8.940;2023-07-24T11:40:44;25.80;99.90
17671;DHT22;8954;48.694;8.940;2023-07-24T11:43:24;25.90;99.90
17671;DHT22;8954;48.694;8.940;2023-07-24T11:45:55;25.00;99.90
17671;DHT22;8954;48.694;8.940;2023-07-24T11:48:24;24.40;99.90
17671;DHT22;8954;48.694;8.940;2023-07-24T11:50:58;23.20;99.90
17671;DHT22;8954;48.694;8.940;2023-07-24T11:53:31;22.10;99.90
17671;DHT22;8954;48.694;8.940;2023-07-24T11:56:12;21.30;99.90
17671;DHT22;8954;48.694;8.940;2023-07-24T11:58:47;21.40;99.90
17671;DHT22;8954;48.694;8.940;2023-07-24T12:01:18;21.80;99.90
17671;DHT22;8954;48.694;8.940;2023-07-24T12:03:43;22.20;99.90
17671;DHT22;8954;48.694;8.940;2023-07-24T12:06:18;22.40;99.90
17671;DHT22;8954;48.694;8.940;2023-07-24T12:08:45;23.00;99.90
17671;DHT22;8954;48.694;8.940;2023-07-24T12:11:17;23.40;99.90
17671;DHT22;8954;48.694;8.940;2023-07-24T12:13:43;23.20;99.90
17671;DHT22;8954;48.694;8.940;2023-07-24T12:16:09;23.40;99.90
17671;DHT22;8954;48.694;8.940;2023-07-24T12:18:40;23.30;99.90
17671;DHT22;8954;48.694;8.940;2023-07-24T12:21:06;23.60;99.90
17671;DHT22;8954;48.694;8.940;2023-07-24T12:23:34;24.10;99.90
17671;DHT22;8954;48.694;8.940;2023-07-24T12:26:05;24.40;99.90
17671;DHT22;8954;48.694;8.940;2023-07-24T12:28:30;24.40;99.90
17671;DHT22;8954;48.694;8.940;2023-07-24T12:31:07;24.10;99.90
17671;DHT22;8954;48.694;8.940;2023-07-24T12:33:36;23.30;99.90
17671;DHT22;8954;48.694;8.940;2023-07-24T12:36:24;23.00;99.90
17671;DHT22;8954;48.694;8.940;2023-07-24T12:38:55;22.90;99.90
17671;DHT22;8954;48.694;8.940;2023-07-24T12:41:25;23.70;99.90
17671;DHT22;8954;48.694;8.940;2023-07-24T12:43:55;24.90;99.90
17671;DHT22;8954;48.694;8.940;2023-07-24T12:46:23;25.90;99.90
17671;DHT22;8954;48.694;8.940;2023-07-24T12:48:49;26.20;99.90
17671;DHT22;8954;48.694;8.940;2023-07-24T12:51:17;26.60;99.90
17671;DHT22;8954;48.694;8.940;2023-07-24T12:53:48;26.40;99.90
17671;DHT22;8954;48.694;8.940;2023-07-24T12:56:16;26.10;99.90
17671;DHT22;8954;48.694;8.940;2023-07-24T12:58:44;25.90;99.90
17671;DHT22;8954;48.694;8.940;2023-07-24T13:01:14;26.20;99.90
17671;DHT22;8954;48.694;8.940;2023-07-24T13:03:43;26.50;99.90
17671;DHT22;8954;48.694;8.940;2023-07-24T13:06:08;26.70;99.90
17671;DHT22;8954;48.694;8.940;2023-07-24T13:08:34;27.90;99.90
17671;DHT22;8954;48.694;8.940;2023-07-24T13:10:59;28.80;99.90
17671;DHT22;8954;48.694;8.940;2023-07-24T13:13:25;29.30;99.90
17671;DHT22;8954;48.694;8.940;2023-07-24T13:15:51;31.00;99.90
17671;DHT22;8954;48.694;8.940;2023-07-24T13:18:17;33.00;99.90
17671;DHT22;8954;48.694;8.940;2023-07-24T13:20:45;34.00;98.10
17671;DHT22;8954;48.694;8.940;2023-07-24T13:23:11;33.60;95.10
17671;DHT22;8954;48.694;8.940;2023-07-24T13:25:36;31.70;94.70
17671;DHT22;8954;48.694;8.940;2023-07-24T13:28:02;30.40;97.30
17671;DHT22;8954;48.694;8.940;2023-07-24T13:30:27;30.60;97.00
17671;DHT22;8954;48.694;8.940;2023-07-24T13:32:53;30.20;97.70
17671;DHT22;8954;48.694;8.940;2023-07-24T13:35:19;29.10;98.80
17671;DHT22;8954;48.694;8.940;2023-07-24T13:37:44;28.30;99.90
17671;DHT22;8954;48.694;8.940;2023-07-24T13:40:10;27.40;99.90
17671;DHT22;8954;48.694;8.940;2023-07-24T13:42:36;27.10;99.90
17671;DHT22;8954;48.694;8.940;2023-07-24T13:45:01;27.20;99.90
17671;DHT22;8954;48.694;8.940;2023-07-24T13:47:27;26.90;99.90
17671;DHT22;8954;48.694;8.940;2023-07-24T13:49:52;28.20;99.90
17671;DHT22;8954;48.694;8.940;2023-07-24T13:52:18;28.60;99.90
17671;DHT22;8954;48.694;8.940;2023-07-24T13:54:43;30.10;99.40
17671;DHT22;8954;48.694;8.940;2023-07-24T13:57:09;32.20;96.20
17671;DHT22;8954;48.694;8.940;2023-07-24T13:59:37;32.90;94.30
17671;DHT22;8954;48.694;8.940;2023-07-24T14:02:06;34.40;91.10
17671;DHT22;8954;48.694;8.940;2023-07-24T14:04:32;33.20;91.30
17671;DHT22;8954;48.694;8.940;2023-07-24T14:06:58;33.30;90.40
17671;DHT22;8954;48.694;8.940;2023-07-24T14:09:23;33.00;89.70
17671;DHT22;8954;48.694;8.940;2023-07-24T14:11:49;32.20;90.60
17671;DHT22;8954;48.694;8.940;2023-07-24T14:14:17;32.00;90.60
17671;DHT22;8954;48.694;8.940;2023-07-24T14:16:43;31.60;90.30
17671;DHT22;8954;48.694;8.940;2023-07-24T14:19:08;30.30;92.30
17671;DHT22;8954;48.694;8.940;2023-07-24T14:21:34;30.10;92.10
17671;DHT22;8954;48.694;8.940;2023-07-24T14:23:59;29.80;92.50
17671;DHT22;8954;48.694;8.940;2023-07-24T14:26:25;30.40;92.30
17671;DHT22;8954;48.694;8.940;2023-07-24T14:28:51;30.60;91.90
17671;DHT22;8954;48.694;8.940;2023-07-24T14:31:16;30.50;91.30
17671;DHT22;8954;48.694;8.940;2023-07-24T14:33:42;29.90;92.30
17671;DHT22;8954;48.694;8.940;2023-07-24T14:36:07;29.30;93.10
17671;DHT22;8954;48.694;8.940;2023-07-24T14:38:33;28.60;93.60
17671;DHT22;8954;48.694;8.940;2023-07-24T14:40:58;28.20;95.20
17671;DHT22;8954;48.694;8.940;2023-07-24T14:43:24;27.60;95.70
17671;DHT22;8954;48.694;8.940;2023-07-24T14:45:49;27.30;97.20
17671;DHT22;8954;48.694;8.940;2023-07-24T14:48:15;27.60;97.40
17671;DHT22;8954;48.694;8.940;2023-07-24T14:50:42;27.60;96.80
17671;DHT22;8954;48.694;8.940;2023-07-24T14:53:07;26.80;98.20
17671;DHT22;8954;48.694;8.940;2023-07-24T14:55:33;26.10;99.60
17671;DHT22;8954;48.694;8.940;2023-07-24T14:57:58;26.20;99.90
17671;DHT22;8954;48.694;8.940;2023-07-24T15:00:24;26.70;99.90
17671;DHT22;8954;48.694;8.940;2023-07-24T15:02:50;27.90;98.70
17671;DHT22;8954;48.694;8.940;2023-07-24T15:05:15;29.10;98.20
17671;DHT22;8954;48.694;8.940;2023-07-24T15:07:43;29.60;96.30
17671;DHT22;8954;48.694;8.940;2023-07-24T15:10:09;28.50;97.60
17671;DHT22;8954;48.694;8.940;2023-07-24T15:12:35;27.40;99.10
17671;DHT22;8954;48.694;8.940;2023-07-24T15:15:00;26.30;99.90
17671;DHT22;8954;48.694;8.940;2023-07-24T15:17:26;26.20;99.90
17671;DHT22;8954;48.694;8.940;2023-07-24T15:19:51;25.70;99.90
17671;DHT22;8954;48.694;8.940;2023-07-24T15:22:17;25.60;99.90
17671;DHT22;8954;48.694;8.940;2023-07-24T15:24:44;25.00;99.90
17671;DHT22;8954;48.694;8.940;2023-07-24T15:27:09;24.60;99.90
17671;DHT22;8954;48.694;8.940;2023-07-24T15:29:36;24.10;99.90
17671;DHT22;8954;48.694;8.940;2023-07-24T15:32:02;23.70;99.90
17671;DHT22;8954;48.694;8.940;2023-07-24T15:34:28;23.50;99.90
